Latest Weather Observations for Esperance Airport

IDW60801

Issued at 3:23 pm WST Wednesday 10 August 2022 (issued every 10 minutes, with the page automatically refreshed every 10 minutes)

About weather observations | Map of weather stations | Latest weather observations for WA | Other Formats
Station Details ID: 009542 Name: ESPERANCE AERO Lat: -33.68 Lon: 121.83 Height: 142.0 m
Data from the previous 72 hours. | See also: Recent months at Esperance Airport
Date/Time
WST
Temp
°C
App
Temp
°C
Dew
Point
°C
Rel
Hum
%
Delta-T
°C
Wind Press
QNH
hPa
Press
MSL
hPa
Rain since
9am
mm
Dir  Spd
km/h
Gust
km/h
Spd
kts
Gust
kts
10/03:00pm 13.2 4.9 7.6 69 2.8 SW 41 54 22 29 1016.8 1016.8 1.8
10/02:50pm 13.3 4.7 6.6 64 3.2 SW 41 61 22 33 1016.5 1016.5 1.8
10/02:30pm 12.0 5.6 9.4 84 1.3 SW 33 43 18 23 1016.6 1016.6 1.8
10/02:00pm 12.5 6.0 8.2 75 2.1 SW 32 46 17 25 1016.0 1016.1 1.8
10/01:33pm 11.4 5.2 9.5 88 1.0 SW 32 50 17 27 1015.9 1016.0 1.6
10/01:30pm 10.5 3.5 8.4 87 1.0 SSW 35 50 19 27 1015.9 1016.0 1.6
10/01:22pm 10.5 2.7 8.4 87 1.0 SSW 39 56 21 30 1016.0 1016.1 1.6
10/01:00pm 13.4 5.9 8.0 70 2.7 WSW 37 54 20 29 1015.6 1015.6 1.4
10/12:45pm 13.1 7.4 8.4 73 2.4 WSW 28 46 15 25 1015.7 1015.7 1.4
10/12:30pm 12.0 5.2 9.4 84 1.3 WSW 35 48 19 26 1015.8 1015.9 1.4
10/12:00pm 12.6 5.5 8.1 74 2.2 SW 35 46 19 25 1016.0 1016.1 1.4
10/11:30am 10.8 4.6 9.4 91 0.7 W 32 39 17 21 1015.9 1016.0 1.2
10/11:00am 10.3 4.0 8.9 91 0.7 W 32 41 17 22 1015.9 1016.0 1.2
10/10:30am 10.5 4.0 9.1 91 0.7 W 33 43 18 23 1015.7 1015.7 1.2
10/10:00am 9.7 2.7 8.5 92 0.6 W 35 44 19 24 1015.3 1015.3 1.2
10/09:30am 8.1 0.9 7.5 96 0.3 W 35 43 19 23 1014.9 1014.9 1.2
10/09:13am 7.7 1.0 7.3 97 0.2 W 32 39 17 21 1014.8 1014.8 0.8
10/09:12am 7.7 1.0 7.3 97 0.2 W 32 39 17 21 1014.9 1014.9 0.8
10/09:07am 7.6 0.9 7.2 97 0.2 W 32 41 17 22 1014.9 1014.9 0.0
10/09:00am 7.4 0.6 7.1 98 0.1 W 32 50 17 27 1014.7 1014.7 13.2
10/08:56am 7.5 0.7 7.1 97 0.2 W 32 50 17 27 1014.9 1014.9 13.2
10/08:42am 7.6 0.7 7.3 98 0.1 W 33 44 18 24 1014.3 1014.3 12.4
10/08:30am 7.4 1.0 7.0 97 0.2 WSW 30 41 16 22 1014.5 1014.5 12.2
10/08:27am 7.4 0.4 7.0 97 0.2 W 33 44 18 24 1014.6 1014.6 12.0
10/08:17am 7.2 -0.6 6.6 96 0.3 W 37 54 20 29 1014.4 1014.4 12.0
10/08:12am 7.2 -0.2 6.6 96 0.3 W 35 54 19 29 1014.2 1014.2 11.6
10/08:00am 7.0 -0.5 6.3 95 0.3 W 35 50 19 27 1013.8 1013.8 11.4
10/07:48am 6.8 -1.1 6.2 96 0.3 W 37 48 20 26 1013.5 1013.5 11.4
10/07:30am 6.6 -1.0 5.9 95 0.3 WNW 35 46 19 25 1013.4 1013.4 11.4
10/07:00am 6.1 -1.6 5.4 95 0.3 WNW 35 46 19 25 1013.2 1013.2 11.2
10/06:40am 5.9 -1.2 5.3 96 0.3 WNW 32 43 17 23 1013.1 1013.1 11.0
10/06:30am 6.1 -1.1 5.7 97 0.2 WNW 33 46 18 25 1013.1 1013.1 11.0
10/06:24am 6.2 -1.8 5.6 96 0.3 WNW 37 50 20 27 1013.1 1013.1 11.0
10/06:00am 6.6 -1.4 5.9 95 0.3 WNW 37 46 20 25 1012.7 1012.7 10.4
10/05:30am 6.2 -0.1 5.5 95 0.3 WNW 28 43 15 23 1012.1 1012.1 10.2
10/05:19am 6.1 0.5 5.4 95 0.3 NW 24 35 13 19 1012.1 1012.1 10.2
10/05:08am 6.1 0.1 5.5 96 0.3 WNW 26 37 14 20 1012.3 1012.3 10.2
10/05:04am 6.1 0.1 5.5 96 0.3 WNW 26 37 14 20 1012.4 1012.4 10.2
10/05:00am 6.1 0.2 5.7 97 0.2 WNW 26 35 14 19 1012.3 1012.3 9.8
10/04:48am 6.1 -0.2 5.7 97 0.2 WNW 28 37 15 20 1012.5 1012.5 9.6
10/04:30am 6.2 -0.9 5.5 95 0.3 WNW 32 41 17 22 1012.2 1012.2 8.8
10/04:00am 6.3 -2.1 5.4 94 0.4 WNW 39 46 21 25 1011.9 1011.9 8.4
10/03:30am 6.4 -0.7 5.4 93 0.4 W 32 41 17 22 1012.1 1012.1 8.2
10/03:00am 6.3 -1.0 5.6 95 0.3 WNW 33 43 18 23 1011.4 1011.4 7.8
10/02:30am 6.4 -1.7 5.4 93 0.4 W 37 48 20 26 1011.7 1011.7 7.4
10/02:00am 6.4 0.9 6.0 97 0.2 WNW 24 32 13 17 1011.7 1011.7 7.4
10/01:51am 6.4 0.5 6.0 97 0.2 WNW 26 32 14 17 1011.8 1011.8 7.4
10/01:30am 6.9 1.2 6.6 98 0.1 W 26 35 14 19 1012.2 1012.2 6.8
10/01:26am 6.9 1.2 6.6 98 0.1 WNW 26 35 14 19 1012.0 1012.0 6.6
10/01:00am 6.8 2.3 6.2 96 0.3 W 19 22 10 12 1011.5 1011.5 6.0
10/12:30am 7.0 2.4 6.6 97 0.2 W 20 26 11 14 1011.5 1011.5 5.8
10/12:00am 7.1 0.1 6.0 93 0.5 WSW 32 44 17 24 1011.5 1011.5 5.6
 
Date/Time
WST
Temp
°C
App
Temp
°C
Dew
Point
°C
Rel
Hum
%
Delta-T
°C
Wind Press
QNH
hPa
Press
MSL
hPa
Rain since
9am
mm
Dir  Spd
km/h
Gust
km/h
Spd
kts
Gust
kts
09/11:30pm 7.3 -0.3 5.9 91 0.6 WSW 35 48 19 26 1011.3 1011.3 5.4
09/11:23pm 7.4 -0.1 6.2 92 0.5 WSW 35 50 19 27 1011.2 1011.2 5.4
09/11:00pm 7.6 0.6 6.7 94 0.4 W 33 44 18 24 1011.0 1011.0 5.0
09/10:56pm 7.5 0.7 6.8 95 0.3 W 32 44 17 24 1010.9 1010.9 5.0
09/10:30pm 7.3 0.4 6.6 95 0.3 WNW 32 43 17 23 1010.4 1010.4 5.0
09/10:00pm 7.4 0.9 6.5 94 0.4 WNW 30 39 16 21 1010.4 1010.4 5.0
09/09:30pm 7.3 2.6 6.2 93 0.5 W 20 30 11 16 1010.5 1010.5 5.0
09/09:00pm 7.5 3.0 7.1 97 0.2 WNW 20 28 11 15 1010.2 1010.2 5.0
09/08:30pm 7.5 1.1 6.8 95 0.3 W 30 39 16 21 1009.9 1009.9 4.6
09/08:00pm 7.7 1.0 7.4 98 0.1 W 32 43 17 23 1009.5 1009.4 4.2
09/07:52pm 7.7 1.8 7.4 98 0.1 WSW 28 43 15 23 1009.5 1009.4 4.0
09/07:36pm 7.8 2.3 7.5 98 0.1 W 26 35 14 19 1008.9 1008.9 3.6
09/07:35pm 7.8 2.3 7.5 98 0.1 W 26 35 14 19 1008.9 1008.9 3.6
09/07:30pm 7.8 1.9 7.5 98 0.1 W 28 35 15 19 1008.8 1008.8 3.2
09/07:14pm 8.2 2.4 7.9 98 0.1 W 28 43 15 23 1008.7 1008.7 2.2
09/07:11pm 8.2 2.8 7.9 98 0.1 W 26 33 14 18 1008.7 1008.7 2.0
09/07:05pm 8.2 3.1 7.8 97 0.2 W 24 32 13 17 1008.6 1008.6 1.8
09/07:00pm 8.3 3.3 7.9 97 0.2 W 24 32 13 17 1008.5 1008.5 1.8
09/06:58pm 8.3 2.8 7.7 96 0.3 W 26 32 14 17 1008.4 1008.4 1.4
09/06:46pm 8.6 2.7 7.5 93 0.5 W 28 35 15 19 1008.4 1008.4 0.4
09/06:30pm 8.8 3.9 7.1 89 0.8 W 22 30 12 16 1008.1 1008.1 0.2
09/06:00pm 8.9 3.6 6.9 87 0.9 W 24 30 13 16 1007.6 1007.6 0.2
09/05:30pm 9.3 3.2 6.7 84 1.2 W 28 37 15 20 1007.2 1007.2 0.2
09/05:00pm 10.1 4.0 6.4 78 1.7 WSW 28 41 15 22 1007.0 1007.0 0.2
09/04:30pm 11.0 4.2 5.3 68 2.6 W 30 35 16 19 1006.5 1006.5 0.2
09/04:00pm 11.4 4.1 5.5 67 2.8 W 33 44 18 24 1006.4 1006.4 0.0
09/03:30pm 11.4 3.4 5.5 67 2.7 W 37 48 20 26 1006.1 1006.1 0.0
09/03:00pm 12.0 4.7 5.6 65 3.0 WNW 33 43 18 23 1005.7 1005.7 0.0
09/02:30pm 12.1 6.0 6.6 69 2.6 W 28 37 15 20 1005.5 1005.5 0.0
09/02:00pm 11.7 5.8 7.4 75 2.1 W 28 41 15 22 1005.4 1005.4 0.0
09/01:30pm 12.1 6.8 6.8 70 2.6 NW 24 33 13 18 1005.5 1005.5 0.0
09/01:00pm 11.7 4.6 6.6 71 2.4 WNW 33 43 18 23 1005.6 1005.6 0.0
09/12:30pm 11.8 4.6 5.2 64 3.1 WNW 32 44 17 24 1005.8 1005.8 0.0
09/12:00pm 12.7 5.6 6.3 65 3.1 WNW 33 44 18 24 1006.1 1006.1 0.0
09/11:30am 12.4 5.4 6.0 65 3.0 NW 32 43 17 23 1006.4 1006.4 0.0
09/11:00am 12.3 6.2 6.6 68 2.7 WNW 28 39 15 21 1006.8 1006.8 0.0
09/10:30am 11.1 5.5 7.0 76 2.0 NW 26 37 14 20 1007.3 1007.3 0.0
09/10:00am 10.8 4.4 7.1 78 1.8 WNW 30 39 16 21 1007.5 1007.5 0.0
09/09:30am 10.9 5.3 7.2 78 1.8 NW 26 37 14 20 1007.6 1007.6 0.0
09/09:00am 11.2 6.4 8.9 86 1.2 NW 24 35 13 19 1007.9 1007.9 0.4
09/08:30am 10.6 6.5 8.5 87 1.0 NNW 20 30 11 16 1008.1 1008.1 0.4
09/08:00am 9.3 6.1 8.4 94 0.4 NNW 15 22 8 12 1008.4 1008.4 0.4
09/07:30am 9.3 6.0 8.2 93 0.5 NNW 15 20 8 11 1008.0 1008.0 0.4
09/07:00am 9.4 6.2 8.3 93 0.5 NNW 15 20 8 11 1008.1 1008.1 0.4
09/06:30am 9.4 5.8 8.5 94 0.4 NNW 17 22 9 12 1007.9 1007.9 0.4
09/06:00am 9.3 5.8 8.7 96 0.3 N 17 20 9 11 1007.9 1007.9 0.4
09/05:30am 9.3 6.5 8.7 96 0.3 NNW 13 15 7 8 1007.8 1007.8 0.4
09/05:00am 9.3 6.1 8.5 95 0.4 NNW 15 19 8 10 1007.7 1007.7 0.2
09/04:30am 9.2 6.8 8.6 96 0.3 NNW 11 13 6 7 1007.5 1007.5 0.2
09/04:00am 9.4 7.4 8.5 94 0.4 NNW 9 11 5 6 1007.6 1007.6 0.2
09/03:30am 9.8 6.9 8.2 90 0.8 NNW 13 19 7 10 1008.1 1008.1 0.0
09/03:00am 10.0 7.1 8.3 89 0.8 NNW 13 19 7 10 1008.2 1008.2 0.0
09/02:30am 10.3 6.7 8.2 87 1.0 NNW 17 20 9 11 1008.5 1008.5 0.0
09/02:00am 10.5 7.0 8.9 90 0.8 NNW 17 26 9 14 1009.0 1009.0 0.0
09/01:30am 9.9 7.1 8.7 92 0.6 NNW 13 17 7 9 1008.9 1008.9 0.0
09/01:00am 9.8 7.0 8.4 91 0.7 NNW 13 17 7 9 1009.2 1009.1 0.0
09/12:30am 9.7 6.8 8.3 91 0.7 NW 13 17 7 9 1009.4 1009.3 0.0
09/12:00am 9.5 6.2 7.9 90 0.8 WNW 15 20 8 11 1009.4 1009.3 0.0
 
Date/Time
WST
Temp
°C
App
Temp
°C
Dew
Point
°C
Rel
Hum
%
Delta-T
°C
Wind Press
QNH
hPa
Press
MSL
hPa
Rain since
9am
mm
Dir  Spd
km/h
Gust
km/h
Spd
kts
Gust
kts
08/11:30pm 10.1 7.2 8.0 87 1.0 NW 13 17 7 9 1009.7 1009.6 0.0
08/11:00pm 9.6 6.9 7.5 87 1.0 NNW 11 13 6 7 1010.0 1010.0 0.0
08/10:30pm 9.9 7.6 7.3 84 1.2 NW 9 13 5 7 1010.4 1010.4 0.0
08/10:00pm 10.9 7.2 7.8 81 1.5 WNW 17 26 9 14 1010.7 1010.7 0.0
08/09:30pm 11.9 7.9 8.4 79 1.7 N 19 22 10 12 1010.0 1010.0 0.0
08/09:00pm 11.5 7.9 8.2 80 1.6 N 17 20 9 11 1010.3 1010.3 0.0
08/08:30pm 11.7 8.4 8.0 78 1.8 N 15 20 8 11 1010.4 1010.4 0.0
08/08:00pm 13.7 9.7 8.1 69 2.8 NW 19 26 10 14 1010.5 1010.5 0.0
08/07:30pm 12.0 9.2 8.7 80 1.7 NNW 13 15 7 8 1010.6 1010.6 0.0
08/07:00pm 11.6 8.9 8.8 83 1.4 NNW 13 13 7 7 1010.7 1010.7 0.0
08/06:30pm 12.5 9.8 9.1 80 1.7 NNW 13 15 7 8 1010.6 1010.6 0.0
08/06:00pm 13.1 10.9 9.5 79 1.8 NNW 11 13 6 7 1010.6 1010.6 0.0
08/05:30pm 14.6 12.4 9.4 71 2.7 NNW 11 15 6 8 1010.5 1010.5 0.0
08/05:00pm 16.0 13.4 9.4 65 3.4 NW 13 17 7 9 1010.5 1010.5 0.0
08/04:30pm 16.9 13.6 9.6 62 3.8 NW 17 24 9 13 1010.5 1010.5 0.0
08/04:00pm 17.3 13.5 9.2 59 4.2 NW 19 30 10 16 1010.6 1010.6 0.0
08/03:30pm 17.9 13.8 10.0 60 4.2 NW 22 30 12 16 1010.5 1010.5 0.0
08/03:00pm 18.1 14.4 10.0 59 4.3 NW 20 28 11 15 1010.9 1010.9 0.0
08/02:30pm 18.0 12.3 9.9 59 4.3 NW 30 41 16 22 1011.1 1011.1 0.0
08/02:00pm 18.0 12.6 9.6 58 4.5 NW 28 37 15 20 1011.4 1011.4 0.0
08/01:30pm 17.1 11.8 9.8 62 3.9 NW 28 39 15 21 1011.7 1011.7 0.0
08/01:00pm 18.1 12.6 10.5 61 4.1 NW 30 44 16 24 1012.0 1012.0 0.0
08/12:30pm 17.7 13.7 11.9 69 3.2 NW 24 35 13 19 1012.6 1012.6 0.0
08/12:00pm 17.0 12.1 10.1 64 3.7 NNW 26 39 14 21 1013.3 1013.3 0.0
08/11:30am 16.7 12.1 11.2 70 3.0 NNW 26 33 14 18 1014.0 1014.0 0.0
08/11:00am 15.2 10.5 10.8 75 2.3 NNW 26 35 14 19 1014.7 1014.7 0.0
08/10:30am 14.8 10.2 11.0 78 2.0 N 26 33 14 18 1015.4 1015.4 0.0
08/10:00am 14.5 10.9 10.5 77 2.1 NNW 20 33 11 18 1015.6 1015.6 0.0
08/09:30am 13.0 9.4 10.4 84 1.4 NNW 20 28 11 15 1015.9 1016.0 0.0
08/09:00am 11.7 7.0 9.4 86 1.2 N 24 32 13 17 1016.3 1016.4 1.2
08/08:30am 11.2 6.8 9.1 87 1.1 NNW 22 32 12 17 1016.6 1016.6 1.2
08/08:00am 10.0 5.8 8.4 90 0.8 N 20 28 11 15 1016.2 1016.3 1.2
08/07:30am 9.2 4.9 8.0 92 0.6 N 20 26 11 14 1016.0 1016.1 1.2
08/07:00am 9.0 4.6 7.6 91 0.7 N 20 24 11 13 1015.9 1016.0 1.2
08/06:30am 8.7 4.5 7.3 91 0.7 N 19 24 10 13 1015.8 1015.9 1.2
08/06:00am 8.7 4.8 7.3 91 0.7 N 17 24 9 13 1015.9 1016.0 1.2
08/05:30am 8.3 4.4 7.1 92 0.6 N 17 20 9 11 1015.8 1015.9 1.2
08/05:00am 7.8 4.6 6.7 93 0.5 N 13 17 7 9 1016.0 1016.1 1.2
08/04:30am 7.8 4.6 6.9 94 0.4 N 13 17 7 9 1016.1 1016.2 1.2
08/04:00am 6.0 2.5 5.4 96 0.3 N 13 15 7 8 1016.3 1016.4 1.2
08/03:30am 6.1 2.6 5.4 95 0.3 N 13 15 7 8 1016.3 1016.4 1.2
08/03:00am 6.4 3.0 5.7 95 0.3 N 13 15 7 8 1016.5 1016.5 1.2
08/02:30am 6.1 2.6 5.5 96 0.3 N 13 17 7 9 1016.7 1016.7 1.2
08/02:00am 5.9 2.4 5.5 97 0.2 N 13 17 7 9 1016.8 1016.8 0.8
08/01:30am 6.1 2.6 5.5 96 0.3 N 13 15 7 8 1017.1 1017.1 0.8
08/01:00am 5.9 2.4 5.5 97 0.2 N 13 13 7 7 1017.3 1017.3 0.8
08/12:30am 6.2 2.8 5.8 97 0.2 N 13 15 7 8 1017.4 1017.4 0.8
08/12:00am 6.3 2.9 5.9 97 0.2 N 13 15 7 8 1017.6 1017.6 0.8
 
Date/Time
WST
Temp
°C
App
Temp
°C
Dew
Point
°C
Rel
Hum
%
Delta-T
°C
Wind Press
QNH
hPa
Press
MSL
hPa
Rain since
9am
mm
Dir  Spd
km/h
Gust
km/h
Spd
kts
Gust
kts
07/11:30pm 6.6 2.5 6.2 97 0.2 N 17 17 9 9 1017.8 1017.8 0.8
07/11:00pm 6.7 3.4 6.4 98 0.1 N 13 13 7 7 1017.8 1017.8 0.8
07/10:30pm 7.2 3.6 6.9 98 0.1 N 15 17 8 9 1018.0 1018.0 0.8
07/10:00pm 8.0 4.6 7.7 98 0.1 N 15 19 8 10 1018.3 1018.3 0.8
07/09:30pm 8.5 5.6 8.2 98 0.1 N 13 19 7 10 1018.4 1018.4 0.8
07/09:00pm 7.9 4.5 7.5 97 0.2 N 15 19 8 10 1018.3 1018.3 0.8
07/08:30pm 9.0 6.4 7.9 93 0.5 NW 11 15 6 8 1018.0 1018.0 0.8
07/08:00pm 10.0 7.7 9.1 94 0.4 NW 11 13 6 7 1017.8 1017.8 0.8
07/07:30pm 10.3 8.6 9.7 96 0.3 NNW 9 13 5 7 1017.8 1017.8 0.8
07/07:00pm 10.2 7.6 9.4 95 0.4 NNW 13 15 7 8 1017.7 1017.7 0.8
07/06:30pm 9.9 7.2 9.0 94 0.4 NW 13 15 7 8 1017.4 1017.4 0.8
07/06:00pm 10.1 7.9 9.2 94 0.4 NW 11 11 6 6 1017.0 1017.0 0.8
07/05:30pm 10.5 8.3 9.3 92 0.6 NW 11 13 6 7 1016.7 1016.7 0.8
07/05:00pm 11.9 9.4 9.6 86 1.2 NW 13 17 7 9 1016.3 1016.4 0.8
07/04:30pm 12.9 10.1 9.9 82 1.5 WNW 15 20 8 11 1015.9 1016.0 0.8
07/04:00pm 13.3 10.5 9.9 80 1.8 NW 15 20 8 11 1015.4 1015.4 0.8
07/03:30pm 13.0 9.7 9.6 80 1.7 NNW 17 20 9 11 1015.0 1015.0 0.8

Other formats

Comma delimited format used in spreadsheet applications
http://www.bom.gov.au/fwo/IDW60801/IDW60801.95638.axf

JavaScript Object Notation format (JSON) in row-major order
http://www.bom.gov.au/fwo/IDW60801/IDW60801.95638.json

Data quality

Most of these data are generated automatically and are frequently updated. Quality checks on data are not normally performed. It is possible for incorrect values to appear. Refer to information at About Latest Weather Observations and please check the disclaimer before using these data.